createdAt,value
2018-09-03T00:00:30.807Z,1013.63
2018-09-03T00:01:30.731Z,1013.63
2018-09-03T00:02:30.664Z,1013.57
2018-09-03T00:03:30.591Z,1013.58
2018-09-03T00:04:30.525Z,1013.49
2018-09-03T00:05:30.450Z,1013.52
2018-09-03T00:06:30.379Z,1013.44
2018-09-03T00:07:30.309Z,1013.40
2018-09-03T00:08:30.235Z,1013.38
2018-09-03T00:09:30.169Z,1013.35
2018-09-03T00:10:30.089Z,1013.33
2018-09-03T00:11:30.021Z,1013.33
2018-09-03T00:12:29.951Z,1013.36
2018-09-03T00:13:29.895Z,1013.35
2018-09-03T00:14:29.807Z,1013.32
2018-09-03T00:15:29.737Z,1013.30
2018-09-03T00:16:29.666Z,1013.26
2018-09-03T00:17:29.593Z,1013.24
2018-09-03T00:18:29.525Z,1013.20
2018-09-03T00:19:29.450Z,1013.18
2018-09-03T00:20:29.381Z,1013.19
2018-09-03T00:21:29.307Z,1013.25
2018-09-03T00:22:29.236Z,1013.19
2018-09-03T00:23:29.168Z,1013.25
2018-09-03T00:24:29.098Z,1013.23
2018-09-03T00:25:29.024Z,1013.20
2018-09-03T00:26:28.955Z,1013.20
2018-09-03T00:27:28.882Z,1013.17
2018-09-03T00:28:28.812Z,1013.15
2018-09-03T00:29:28.740Z,1013.14
2018-09-03T00:30:28.669Z,1013.12
2018-09-03T00:31:28.597Z,1013.06
2018-09-03T00:32:28.531Z,1013.03
2018-09-03T00:33:28.454Z,1013.01
2018-09-03T00:34:28.386Z,1013.00
2018-09-03T00:35:28.314Z,1013.01
2018-09-03T00:36:28.239Z,1012.98
2018-09-03T00:37:28.171Z,1012.92
2018-09-03T00:38:28.097Z,1012.95
2018-09-03T00:39:28.024Z,1012.96
2018-09-03T00:40:27.955Z,1012.96
2018-09-03T00:41:27.882Z,1012.91
2018-09-03T00:42:27.808Z,1012.96
2018-09-03T00:43:27.740Z,1012.96
2018-09-03T00:44:27.674Z,1012.97
2018-09-03T00:45:27.598Z,1012.96
2018-09-03T00:46:27.527Z,1012.97
2018-09-03T00:47:27.455Z,1013.04
2018-09-03T00:48:27.385Z,1013.02
2018-09-03T00:49:27.314Z,1012.95
2018-09-03T00:50:27.240Z,1012.94
2018-09-03T00:51:27.172Z,1012.89
2018-09-03T00:52:27.104Z,1012.88
2018-09-03T00:53:27.026Z,1012.85
2018-09-03T00:54:26.955Z,1012.84
2018-09-03T00:55:26.885Z,1012.86
2018-09-03T00:56:26.813Z,1012.87
2018-09-03T00:57:26.738Z,1012.84
2018-09-03T00:58:26.669Z,1012.89
2018-09-03T00:59:26.594Z,1012.91
2018-09-03T01:00:26.524Z,1012.93
2018-09-03T01:01:26.456Z,1012.93
2018-09-03T01:02:26.381Z,1012.91
2018-09-03T01:03:26.311Z,1012.87
2018-09-03T01:04:26.233Z,1012.85
2018-09-03T01:05:26.167Z,1012.84
2018-09-03T01:06:26.093Z,1012.83
2018-09-03T01:07:26.021Z,1012.82
2018-09-03T01:08:25.949Z,1012.87
2018-09-03T01:09:25.878Z,1012.78
2018-09-03T01:10:25.815Z,1012.83
2018-09-03T01:11:25.735Z,1012.81
2018-09-03T01:12:25.670Z,1012.86
2018-09-03T01:13:25.591Z,1012.84
2018-09-03T01:14:25.520Z,1012.85
2018-09-03T01:15:25.448Z,1012.84
2018-09-03T01:16:25.377Z,1012.82
2018-09-03T01:17:25.304Z,1012.80
2018-09-03T01:18:25.235Z,1012.80
2018-09-03T01:19:25.160Z,1012.74
2018-09-03T01:20:25.088Z,1012.73
2018-09-03T01:21:25.016Z,1012.73
2018-09-03T01:22:24.944Z,1012.74
2018-09-03T01:23:24.874Z,1012.75
2018-09-03T01:24:24.799Z,1012.78
2018-09-03T01:25:24.728Z,1012.83
2018-09-03T01:26:24.657Z,1012.83
2018-09-03T01:27:24.583Z,1012.84
2018-09-03T01:28:24.514Z,1012.86
2018-09-03T01:29:24.454Z,1012.85
2018-09-03T01:30:24.369Z,1012.86
2018-09-03T01:31:24.296Z,1012.84
2018-09-03T01:32:24.224Z,1012.86
2018-09-03T01:33:24.151Z,1012.90
2018-09-03T01:34:24.080Z,1012.90
2018-09-03T01:35:24.012Z,1012.94
2018-09-03T01:36:23.936Z,1012.94
2018-09-03T01:37:23.864Z,1012.97
2018-09-03T01:38:23.790Z,1012.92
2018-09-03T01:39:23.721Z,1012.95
2018-09-03T01:40:23.647Z,1012.96
2018-09-03T01:41:23.575Z,1012.95
2018-09-03T01:42:23.513Z,1012.92
2018-09-03T01:43:23.432Z,1012.97
2018-09-03T01:44:23.361Z,1012.98
2018-09-03T01:45:23.289Z,1013.02
2018-09-03T01:46:23.216Z,1013.06
2018-09-03T01:47:23.142Z,1013.11
2018-09-03T01:48:23.077Z,1013.18
2018-09-03T01:49:22.998Z,1013.25
2018-09-03T01:50:22.928Z,1013.27
2018-09-03T01:51:22.854Z,1013.27
2018-09-03T01:52:22.783Z,1013.34
2018-09-03T01:53:22.710Z,1013.41
2018-09-03T01:54:22.647Z,1013.42
2018-09-03T01:55:22.568Z,1013.45
2018-09-03T01:56:22.494Z,1013.48
2018-09-03T01:57:22.424Z,1013.47
2018-09-03T01:58:22.352Z,1013.44
2018-09-03T01:59:22.280Z,1013.46
2018-09-03T02:00:22.204Z,1013.45
2018-09-03T02:01:22.138Z,1013.44
2018-09-03T02:02:22.059Z,1013.40
2018-09-03T02:03:21.990Z,1013.41
2018-09-03T02:04:21.916Z,1013.38
2018-09-03T02:05:21.846Z,1013.37
2018-09-03T02:06:21.772Z,1013.39
2018-09-03T02:07:21.705Z,1013.36
2018-09-03T02:08:21.624Z,1013.34
2018-09-03T02:09:21.560Z,1013.30
2018-09-03T02:10:21.485Z,1013.20
2018-09-03T02:11:21.409Z,1013.17
2018-09-03T02:12:21.393Z,1013.14
2018-09-03T02:13:21.276Z,1013.14
2018-09-03T02:14:21.201Z,1013.18
2018-09-03T02:15:21.123Z,1013.14
2018-09-03T02:16:21.051Z,1013.15
2018-09-03T02:17:20.980Z,1013.10
2018-09-03T02:18:20.916Z,1013.06
2018-09-03T02:19:20.834Z,1013.08
2018-09-03T02:20:20.765Z,1013.07
2018-09-03T02:21:20.691Z,1013.14
2018-09-03T02:22:20.615Z,1013.13
2018-09-03T02:23:20.546Z,1013.07
2018-09-03T02:24:20.473Z,1013.11
2018-09-03T02:25:20.399Z,1013.15
2018-09-03T02:26:20.326Z,1013.16
2018-09-03T02:27:20.258Z,1013.16
2018-09-03T02:28:20.185Z,1013.17
2018-09-03T02:29:20.112Z,1013.18
2018-09-03T02:30:20.042Z,1013.21
2018-09-03T02:31:19.968Z,1013.20
2018-09-03T02:32:19.896Z,1013.20
2018-09-03T02:33:19.821Z,1013.14
2018-09-03T02:34:19.757Z,1013.14
2018-09-03T02:35:19.679Z,1013.08
2018-09-03T02:36:19.610Z,1013.07
2018-09-03T02:37:19.533Z,1013.08
2018-09-03T02:38:19.464Z,1013.10
2018-09-03T02:39:19.388Z,1013.09
2018-09-03T02:40:19.317Z,1013.08
2018-09-03T02:41:19.244Z,1013.02
2018-09-03T02:42:19.172Z,1012.99
2018-09-03T02:43:19.102Z,1013.01
2018-09-03T02:44:19.027Z,1012.98
2018-09-03T02:45:18.956Z,1012.97
2018-09-03T02:46:18.882Z,1012.96
2018-09-03T02:47:18.815Z,1012.90
2018-09-03T02:48:18.739Z,1012.91
2018-09-03T02:49:18.665Z,1012.88
2018-09-03T02:50:18.591Z,1012.87
2018-09-03T02:51:18.518Z,1012.90
2018-09-03T02:52:18.450Z,1012.97
2018-09-03T02:53:18.377Z,1012.92
2018-09-03T02:54:18.306Z,1012.93
2018-09-03T02:55:18.231Z,1012.97
2018-09-03T02:56:18.159Z,1012.97
2018-09-03T02:57:18.088Z,1012.94
2018-09-03T02:58:18.018Z,1012.99
2018-09-03T02:59:17.944Z,1012.94
2018-09-03T03:00:17.881Z,1012.93
2018-09-03T03:01:17.803Z,1012.90
2018-09-03T03:02:17.728Z,1012.89
2018-09-03T03:03:17.653Z,1012.90
2018-09-03T03:04:17.579Z,1012.89
2018-09-03T03:05:17.509Z,1012.87
2018-09-03T03:06:17.439Z,1012.88
2018-09-03T03:07:17.364Z,1012.91
2018-09-03T03:08:17.294Z,1012.90
2018-09-03T03:09:17.221Z,1012.90
2018-09-03T03:10:17.149Z,1012.88
2018-09-03T03:11:17.084Z,1012.89
2018-09-03T03:12:17.004Z,1012.88
2018-09-03T03:13:16.933Z,1012.89
2018-09-03T03:14:16.863Z,1012.86
2018-09-03T03:15:16.790Z,1012.85
2018-09-03T03:16:16.715Z,1012.80
2018-09-03T03:17:16.644Z,1012.76
2018-09-03T03:18:16.572Z,1012.76
2018-09-03T03:19:16.499Z,1012.72
2018-09-03T03:20:16.428Z,1012.70
2018-09-03T03:21:16.355Z,1012.71
2018-09-03T03:22:16.284Z,1012.69
2018-09-03T03:23:16.212Z,1012.71
2018-09-03T03:24:16.150Z,1012.74
2018-09-03T03:25:16.066Z,1012.78
2018-09-03T03:26:15.998Z,1012.72
2018-09-03T03:27:15.917Z,1012.75
2018-09-03T03:28:15.850Z,1012.78
2018-09-03T03:29:15.778Z,1012.72
2018-09-03T03:30:15.706Z,1012.71
2018-09-03T03:31:15.636Z,1012.65
2018-09-03T03:32:15.572Z,1012.63
2018-09-03T03:33:15.491Z,1012.67
2018-09-03T03:34:15.418Z,1012.62
2018-09-03T03:35:15.346Z,1012.64
2018-09-03T03:36:15.275Z,1012.65
2018-09-03T03:37:15.203Z,1012.59
2018-09-03T03:38:15.130Z,1012.56
2018-09-03T03:39:15.065Z,1012.56
2018-09-03T03:40:14.980Z,1012.52
2018-09-03T03:41:14.914Z,1012.53
2018-09-03T03:42:14.843Z,1012.51
2018-09-03T03:43:14.769Z,1012.51
2018-09-03T03:44:14.697Z,1012.50
2018-09-03T03:45:14.630Z,1012.45
2018-09-03T03:46:14.553Z,1012.43
2018-09-03T03:47:14.481Z,1012.37
2018-09-03T03:48:14.414Z,1012.42
2018-09-03T03:49:14.338Z,1012.35
2018-09-03T03:50:14.267Z,1012.34
2018-09-03T03:51:14.193Z,1012.36
2018-09-03T03:52:14.132Z,1012.34
2018-09-03T03:53:14.047Z,1012.34
2018-09-03T03:54:13.976Z,1012.34
2018-09-03T03:55:13.999Z,1012.37
2018-09-03T03:56:13.831Z,1012.38
2018-09-03T03:57:13.761Z,1012.35
2018-09-03T03:58:13.693Z,1012.36
2018-09-03T03:59:13.619Z,1012.37
2018-09-03T04:00:13.543Z,1012.37
2018-09-03T04:01:13.469Z,1012.35
2018-09-03T04:02:13.398Z,1012.39
2018-09-03T04:03:13.328Z,1012.35
2018-09-03T04:04:13.254Z,1012.34
2018-09-03T04:05:13.187Z,1012.35
2018-09-03T04:06:13.110Z,1012.36
2018-09-03T04:07:13.040Z,1012.38
2018-09-03T04:08:12.980Z,1012.40
2018-09-03T04:09:12.896Z,1012.43
2018-09-03T04:10:12.823Z,1012.41
2018-09-03T04:11:12.753Z,1012.40
2018-09-03T04:12:12.683Z,1012.38
2018-09-03T04:13:12.607Z,1012.45
2018-09-03T04:14:12.534Z,1012.40
2018-09-03T04:15:12.468Z,1012.36
2018-09-03T04:16:12.389Z,1012.39
2018-09-03T04:17:12.317Z,1012.33
2018-09-03T04:18:12.245Z,1012.30
2018-09-03T04:19:12.176Z,1012.27
2018-09-03T04:20:12.109Z,1012.29
2018-09-03T04:21:12.032Z,1012.31
2018-09-03T04:22:11.964Z,1012.32
2018-09-03T04:23:11.905Z,1012.35
2018-09-03T04:24:11.816Z,1012.32
2018-09-03T04:25:11.743Z,1012.32
2018-09-03T04:26:11.673Z,1012.28
2018-09-03T04:27:11.596Z,1012.26
2018-09-03T04:28:11.523Z,1012.25
2018-09-03T04:29:11.455Z,1012.27
2018-09-03T04:30:11.384Z,1012.28
2018-09-03T04:31:11.311Z,1012.36
2018-09-03T04:32:11.239Z,1012.33
2018-09-03T04:33:11.167Z,1012.33
2018-09-03T04:34:11.095Z,1012.32
2018-09-03T04:35:11.025Z,1012.31
2018-09-03T04:36:10.947Z,1012.28
2018-09-03T04:37:10.876Z,1012.31
2018-09-03T04:38:10.806Z,1012.24
2018-09-03T04:39:10.733Z,1012.23
2018-09-03T04:40:10.669Z,1012.20
2018-09-03T04:41:10.590Z,1012.20
2018-09-03T04:42:10.517Z,1012.17
2018-09-03T04:43:10.445Z,1012.17
2018-09-03T04:44:10.373Z,1012.15
2018-09-03T04:45:10.302Z,1012.15
2018-09-03T04:46:10.230Z,1012.19
2018-09-03T04:47:10.158Z,1012.18
2018-09-03T04:48:10.100Z,1012.17
2018-09-03T04:49:10.014Z,1012.18
2018-09-03T04:50:09.941Z,1012.16
2018-09-03T04:51:09.869Z,1012.17
2018-09-03T04:52:09.798Z,1012.17
2018-09-03T04:53:09.726Z,1012.18
2018-09-03T04:54:09.658Z,1012.21
2018-09-03T04:55:09.621Z,1012.22
2018-09-03T04:56:09.511Z,1012.16
2018-09-03T04:57:09.437Z,1012.17
2018-09-03T04:58:09.366Z,1012.14
2018-09-03T04:59:09.292Z,1012.11
2018-09-03T05:00:09.217Z,1012.13
2018-09-03T05:01:09.149Z,1012.10
2018-09-03T05:02:09.079Z,1012.07
2018-09-03T05:03:09.007Z,1012.02
2018-09-03T05:04:08.935Z,1012.03
2018-09-03T05:05:08.874Z,1012.08
2018-09-03T05:06:08.839Z,1012.10
2018-09-03T05:07:08.718Z,1012.12
2018-09-03T05:08:08.647Z,1012.14
2018-09-03T05:09:08.576Z,1012.16
2018-09-03T05:10:08.503Z,1012.18
2018-09-03T05:11:08.431Z,1012.17
2018-09-03T05:12:08.358Z,1012.16
2018-09-03T05:13:08.287Z,1012.13
2018-09-03T05:14:08.219Z,1012.16
2018-09-03T05:15:08.142Z,1012.21
2018-09-03T05:16:08.073Z,1012.21
2018-09-03T05:17:07.997Z,1012.27
2018-09-03T05:18:07.933Z,1012.20
2018-09-03T05:19:07.855Z,1012.24
2018-09-03T05:20:07.784Z,1012.27
2018-09-03T05:21:07.714Z,1012.21
2018-09-03T05:22:07.640Z,1012.21
2018-09-03T05:23:07.569Z,1012.22
2018-09-03T05:24:07.498Z,1012.24
2018-09-03T05:25:07.427Z,1012.24
2018-09-03T05:26:07.355Z,1012.30
2018-09-03T05:27:07.280Z,1012.29
2018-09-03T05:28:07.213Z,1012.29
2018-09-03T05:29:07.137Z,1012.28
2018-09-03T05:30:07.065Z,1012.28
2018-09-03T05:31:07.042Z,1012.25
2018-09-03T05:32:06.918Z,1012.20
2018-09-03T05:33:06.856Z,1012.19
2018-09-03T05:34:06.781Z,1012.17
2018-09-03T05:35:06.710Z,1012.14
2018-09-03T05:36:06.636Z,1012.13
2018-09-03T05:37:06.562Z,1012.15
2018-09-03T05:38:06.491Z,1012.12
2018-09-03T05:39:06.415Z,1012.12
2018-09-03T05:40:06.346Z,1012.12
2018-09-03T05:41:06.281Z,1012.08
2018-09-03T05:42:06.222Z,1012.06
2018-09-03T05:43:06.195Z,1012.05
2018-09-03T05:44:06.170Z,1012.04
2018-09-03T05:45:05.989Z,1012.04
2018-09-03T05:46:05.916Z,1012.11
2018-09-03T05:47:05.845Z,1012.06
2018-09-03T05:48:05.772Z,1012.11
2018-09-03T05:49:05.701Z,1012.16
2018-09-03T05:50:05.675Z,1012.14
2018-09-03T05:51:05.552Z,1012.18
2018-09-03T05:52:05.485Z,1012.17
2018-09-03T05:53:05.413Z,1012.18
2018-09-03T05:54:05.341Z,1012.15
2018-09-03T05:55:05.270Z,1012.17
2018-09-03T05:56:05.196Z,1012.20
2018-09-03T05:57:05.126Z,1012.19
2018-09-03T05:58:05.063Z,1012.20
2018-09-03T05:59:05.035Z,1012.17
2018-09-03T06:00:04.911Z,1012.22
2018-09-03T06:01:04.840Z,1012.19
2018-09-03T06:02:04.773Z,1012.22
2018-09-03T06:03:04.696Z,1012.22
2018-09-03T06:04:04.627Z,1012.17
2018-09-03T06:05:04.559Z,1012.16
2018-09-03T06:06:04.484Z,1012.15
2018-09-03T06:07:04.409Z,1012.10
2018-09-03T06:08:04.338Z,1012.11
2018-09-03T06:09:04.268Z,1012.13
2018-09-03T06:10:04.190Z,1012.15
2018-09-03T06:11:04.135Z,1012.14
2018-09-03T06:12:04.051Z,1012.08
2018-09-03T06:13:03.980Z,1012.09
2018-09-03T06:14:03.907Z,1012.06
2018-09-03T06:15:03.841Z,1012.02
2018-09-03T06:16:03.768Z,1012.00
2018-09-03T06:17:03.694Z,1011.98
2018-09-03T06:18:03.623Z,1011.97
2018-09-03T06:19:03.554Z,1011.97
2018-09-03T06:20:03.482Z,1011.99
2018-09-03T06:21:03.413Z,1011.98
2018-09-03T06:22:03.338Z,1012.02
2018-09-03T06:23:03.273Z,1011.99
2018-09-03T06:24:03.195Z,1012.05
2018-09-03T06:25:03.147Z,1012.06
2018-09-03T06:26:03.051Z,1012.12
2018-09-03T06:27:02.977Z,1012.09
2018-09-03T06:28:02.907Z,1012.04
2018-09-03T06:29:02.837Z,1012.06
2018-09-03T06:30:02.774Z,1012.09
2018-09-03T06:31:02.695Z,1012.10
2018-09-03T06:32:02.623Z,1012.06
2018-09-03T06:33:02.554Z,1012.09
2018-09-03T06:34:02.492Z,1012.08
2018-09-03T06:35:02.417Z,1012.07
2018-09-03T06:36:02.404Z,1012.07
2018-09-03T06:37:02.269Z,1012.08
2018-09-03T06:38:02.194Z,1012.04
2018-09-03T06:39:02.183Z,1012.05
2018-09-03T06:40:02.056Z,1012.08
2018-09-03T06:41:01.981Z,1012.13
2018-09-03T06:42:01.913Z,1012.16
2018-09-03T06:43:01.838Z,1012.15
2018-09-03T06:44:01.768Z,1012.15
2018-09-03T06:45:01.698Z,1012.14
2018-09-03T06:46:01.625Z,1012.11
2018-09-03T06:47:01.556Z,1012.11
2018-09-03T06:48:01.481Z,1012.13
2018-09-03T06:49:01.413Z,1012.08
2018-09-03T06:50:01.338Z,1012.12
2018-09-03T06:51:01.267Z,1012.13
2018-09-03T06:52:01.200Z,1012.06
2018-09-03T06:53:01.124Z,1012.06
2018-09-03T06:54:01.054Z,1012.03
2018-09-03T06:55:00.982Z,1012.00
2018-09-03T06:56:00.911Z,1012.05
2018-09-03T06:57:00.839Z,1012.02
2018-09-03T06:58:00.770Z,1012.00
2018-09-03T06:59:00.698Z,1011.99
2018-09-03T07:00:00.627Z,1011.95
2018-09-03T07:01:00.559Z,1011.99
2018-09-03T07:02:00.482Z,1012.00
2018-09-03T07:03:00.415Z,1011.98
2018-09-03T07:04:00.337Z,1012.00
2018-09-03T07:05:00.270Z,1011.99
2018-09-03T07:06:00.199Z,1011.97
2018-09-03T07:07:00.129Z,1011.99
2018-09-03T07:08:00.057Z,1011.98
2018-09-03T07:08:59.989Z,1011.97
2018-09-03T07:09:59.911Z,1011.97
2018-09-03T07:10:59.843Z,1011.98
2018-09-03T07:11:59.772Z,1011.96
2018-09-03T07:12:59.702Z,1011.96
2018-09-03T07:13:59.632Z,1011.99
2018-09-03T07:14:59.560Z,1012.03
2018-09-03T07:15:59.489Z,1012.00
2018-09-03T07:16:59.419Z,1012.04
2018-09-03T07:17:59.351Z,1012.05
2018-09-03T07:18:59.279Z,1012.01
2018-09-03T07:19:59.208Z,1012.03
2018-09-03T07:20:59.137Z,1012.06
2018-09-03T07:21:59.068Z,1012.08
2018-09-03T07:22:58.995Z,1012.10
2018-09-03T07:23:58.926Z,1012.08
2018-09-03T07:24:58.857Z,1012.09
2018-09-03T07:25:58.783Z,1012.08
2018-09-03T07:26:58.714Z,1012.08
2018-09-03T07:27:58.647Z,1012.02
2018-09-03T07:28:58.618Z,1012.00
2018-09-03T07:29:58.516Z,1012.01
2018-09-03T07:30:58.431Z,1012.00
2018-09-03T07:31:58.361Z,1012.02
2018-09-03T07:32:58.290Z,1012.01
2018-09-03T07:33:58.218Z,1012.03
2018-09-03T07:34:58.148Z,1011.98
2018-09-03T07:35:58.073Z,1012.01
2018-09-03T07:36:58.005Z,1011.98
2018-09-03T07:37:57.939Z,1011.98
2018-09-03T07:38:57.866Z,1011.96
2018-09-03T07:39:57.804Z,1011.99
2018-09-03T07:40:57.725Z,1011.97
2018-09-03T07:41:57.659Z,1011.99
2018-09-03T07:42:57.583Z,1012.02
2018-09-03T07:43:57.562Z,1012.02
2018-09-03T07:44:57.441Z,1012.04
2018-09-03T07:45:57.370Z,1012.00
2018-09-03T07:46:57.301Z,1012.00
2018-09-03T07:47:57.242Z,1011.93
2018-09-03T07:48:57.167Z,1011.91
2018-09-03T07:49:57.090Z,1011.90
2018-09-03T07:50:57.075Z,1011.92
2018-09-03T07:51:56.948Z,1011.91
2018-09-03T07:52:56.876Z,1011.92
2018-09-03T07:53:56.811Z,1011.88
2018-09-03T07:54:56.734Z,1011.89
2018-09-03T07:55:56.667Z,1011.84
2018-09-03T07:56:56.589Z,1011.81
2018-09-03T07:57:56.530Z,1011.80
2018-09-03T07:58:56.453Z,1011.78
2018-09-03T07:59:56.383Z,1011.73
2018-09-03T08:00:56.315Z,1011.71
2018-09-03T08:01:56.243Z,1011.71
2018-09-03T08:02:56.174Z,1011.67
2018-09-03T08:03:56.108Z,1011.67
2018-09-03T08:04:56.032Z,1011.65
2018-09-03T08:05:55.959Z,1011.70
2018-09-03T08:06:55.889Z,1011.71
2018-09-03T08:07:55.822Z,1011.80
2018-09-03T08:08:55.750Z,1011.75
2018-09-03T08:09:55.679Z,1011.78
2018-09-03T08:10:55.616Z,1011.79
2018-09-03T08:11:55.539Z,1011.81
2018-09-03T08:12:55.488Z,1011.87
2018-09-03T08:13:55.407Z,1011.90
2018-09-03T08:14:55.329Z,1011.87
2018-09-03T08:15:55.257Z,1011.90
2018-09-03T08:16:55.192Z,1011.91
2018-09-03T08:17:55.118Z,1011.90
2018-09-03T08:18:55.050Z,1011.90
2018-09-03T08:19:55.039Z,1011.88
2018-09-03T08:20:54.911Z,1011.86
2018-09-03T08:21:54.837Z,1011.88
2018-09-03T08:22:54.767Z,1011.86
2018-09-03T08:23:54.696Z,1011.83
2018-09-03T08:24:54.627Z,1011.82
2018-09-03T08:25:54.563Z,1011.86
2018-09-03T08:26:54.489Z,1011.87
2018-09-03T08:27:54.421Z,1011.86
2018-09-03T08:28:54.349Z,1011.85
2018-09-03T08:29:54.283Z,1011.88
2018-09-03T08:30:54.207Z,1011.88
2018-09-03T08:31:54.142Z,1011.86
2018-09-03T08:32:54.092Z,1011.90
2018-09-03T08:33:54.004Z,1011.87
2018-09-03T08:34:53.931Z,1011.89
2018-09-03T08:35:53.863Z,1011.85
2018-09-03T08:36:53.792Z,1011.88
2018-09-03T08:37:53.730Z,1011.87
2018-09-03T08:38:53.657Z,1011.86
2018-09-03T08:39:53.639Z,1011.88
2018-09-03T08:40:53.513Z,1011.88
2018-09-03T08:41:53.444Z,1011.91
2018-09-03T08:42:53.374Z,1011.92
2018-09-03T08:43:53.310Z,1011.89
2018-09-03T08:44:53.369Z,1011.93
2018-09-03T08:45:53.165Z,1011.91
2018-09-03T08:46:53.095Z,1011.90
2018-09-03T08:47:53.030Z,1011.93
2018-09-03T08:48:52.957Z,1011.88
2018-09-03T08:49:52.890Z,1011.92
2018-09-03T08:50:52.817Z,1011.94
2018-09-03T08:51:52.761Z,1011.91
2018-09-03T08:52:52.676Z,1011.87
2018-09-03T08:53:52.612Z,1011.90
2018-09-03T08:54:52.542Z,1011.88
2018-09-03T08:55:52.467Z,1011.91
2018-09-03T08:56:52.434Z,1011.86
2018-09-03T08:57:52.330Z,1011.84
2018-09-03T08:58:52.260Z,1011.85
2018-09-03T08:59:52.191Z,1011.85
2018-09-03T09:00:52.125Z,1011.84
2018-09-03T09:01:52.057Z,1011.87
2018-09-03T09:02:51.990Z,1011.90
2018-09-03T09:03:51.913Z,1011.91
2018-09-03T09:04:51.833Z,1011.92
2018-09-03T09:05:51.818Z,1011.94
2018-09-03T09:06:51.701Z,1011.96
2018-09-03T09:07:51.632Z,1011.93
2018-09-03T09:08:51.562Z,1011.96
2018-09-03T09:09:51.495Z,1011.97
2018-09-03T09:10:51.422Z,1011.98
2018-09-03T09:11:51.422Z,1011.97
2018-09-03T09:12:51.282Z,1011.98
2018-09-03T09:13:51.212Z,1011.95
2018-09-03T09:14:51.142Z,1011.96
2018-09-03T09:15:51.072Z,1011.88
2018-09-03T09:16:51.001Z,1011.88
2018-09-03T09:17:50.934Z,1011.85
2018-09-03T09:18:50.865Z,1011.85
2018-09-03T09:19:50.794Z,1011.84
2018-09-03T09:20:50.728Z,1011.78
2018-09-03T09:21:50.656Z,1011.73
2018-09-03T09:22:50.584Z,1011.72
2018-09-03T09:23:50.513Z,1011.70
2018-09-03T09:24:50.451Z,1011.74
2018-09-03T09:25:50.379Z,1011.71
2018-09-03T09:26:50.310Z,1011.72
2018-09-03T09:27:50.238Z,1011.72
2018-09-03T09:28:50.167Z,1011.74
2018-09-03T09:29:50.099Z,1011.77
2018-09-03T09:30:50.034Z,1011.76
2018-09-03T09:31:49.960Z,1011.81
2018-09-03T09:32:49.891Z,1011.80
2018-09-03T09:33:49.823Z,1011.76
2018-09-03T09:34:49.753Z,1011.82
2018-09-03T09:35:49.754Z,1011.81
2018-09-03T09:36:49.654Z,1011.80
2018-09-03T09:37:49.547Z,1011.80
2018-09-03T09:38:49.473Z,1011.77
2018-09-03T09:39:49.407Z,1011.73
2018-09-03T09:40:49.341Z,1011.74
2018-09-03T09:41:49.272Z,1011.69
2018-09-03T09:42:49.197Z,1011.68
2018-09-03T09:43:49.132Z,1011.67
2018-09-03T09:44:49.061Z,1011.66
2018-09-03T09:45:48.993Z,1011.67
2018-09-03T09:46:48.924Z,1011.61
2018-09-03T09:47:48.855Z,1011.59
2018-09-03T09:48:48.784Z,1011.59
2018-09-03T09:49:48.719Z,1011.57
2018-09-03T09:50:48.647Z,1011.57
2018-09-03T09:51:48.586Z,1011.57
2018-09-03T09:52:48.508Z,1011.52
2018-09-03T09:53:48.447Z,1011.57
2018-09-03T09:54:48.405Z,1011.60
2018-09-03T09:55:48.345Z,1011.56
2018-09-03T09:56:48.231Z,1011.55
2018-09-03T09:57:48.163Z,1011.62
2018-09-03T09:58:48.110Z,1011.60
2018-09-03T09:59:48.036Z,1011.63
2018-09-03T10:00:47.956Z,1011.63
2018-09-03T10:01:47.890Z,1011.66
2018-09-03T10:02:47.817Z,1011.63
2018-09-03T10:03:47.751Z,1011.64
2018-09-03T10:04:47.682Z,1011.62
2018-09-03T10:05:47.611Z,1011.55
2018-09-03T10:06:47.548Z,1011.55
2018-09-03T10:07:47.478Z,1011.49
2018-09-03T10:08:47.404Z,1011.50
2018-09-03T10:09:47.342Z,1011.46
2018-09-03T10:10:47.266Z,1011.43
2018-09-03T10:11:47.204Z,1011.44
2018-09-03T10:12:47.134Z,1011.45
2018-09-03T10:13:47.061Z,1011.42
2018-09-03T10:14:46.991Z,1011.43
2018-09-03T10:15:46.921Z,1011.40
2018-09-03T10:16:46.858Z,1011.43
2018-09-03T10:17:46.785Z,1011.45
2018-09-03T10:18:46.717Z,1011.43
2018-09-03T10:19:46.646Z,1011.34
2018-09-03T10:20:46.583Z,1011.37
2018-09-03T10:21:46.508Z,1011.31
2018-09-03T10:22:46.440Z,1011.34
2018-09-03T10:23:46.374Z,1011.32
2018-09-03T10:24:46.302Z,1011.33
2018-09-03T10:25:46.246Z,1011.32
2018-09-03T10:26:46.174Z,1011.38
2018-09-03T10:27:46.099Z,1011.34
2018-09-03T10:28:46.030Z,1011.34
2018-09-03T10:29:45.959Z,1011.36
2018-09-03T10:30:45.893Z,1011.34
2018-09-03T10:31:45.830Z,1011.30
2018-09-03T10:32:45.755Z,1011.32
2018-09-03T10:33:45.685Z,1011.34
2018-09-03T10:34:45.615Z,1011.31
2018-09-03T10:35:45.550Z,1011.35
2018-09-03T10:36:45.480Z,1011.33
2018-09-03T10:37:45.409Z,1011.37
2018-09-03T10:38:45.341Z,1011.37
2018-09-03T10:39:45.274Z,1011.38
2018-09-03T10:40:45.204Z,1011.39
2018-09-03T10:41:45.137Z,1011.32
2018-09-03T10:42:45.062Z,1011.32
2018-09-03T10:43:44.997Z,1011.29
2018-09-03T10:44:44.929Z,1011.30
2018-09-03T10:45:44.861Z,1011.29
2018-09-03T10:46:44.793Z,1011.31
2018-09-03T10:47:44.776Z,1011.31
2018-09-03T10:48:44.656Z,1011.27
2018-09-03T10:49:44.587Z,1011.22
2018-09-03T10:50:44.519Z,1011.27
2018-09-03T10:51:44.446Z,1011.28
2018-09-03T10:52:44.424Z,1011.24
2018-09-03T10:53:44.313Z,1011.20
2018-09-03T10:54:44.248Z,1011.20
2018-09-03T10:55:44.176Z,1011.16
2018-09-03T10:56:44.106Z,1011.14
2018-09-03T10:57:44.039Z,1011.12
2018-09-03T10:58:43.968Z,1011.12
2018-09-03T10:59:43.903Z,1011.13
2018-09-03T11:00:43.839Z,1011.13
2018-09-03T11:01:43.762Z,1011.12
2018-09-03T11:02:43.695Z,1011.15
2018-09-03T11:03:43.625Z,1011.09
2018-09-03T11:04:43.559Z,1011.08
2018-09-03T11:05:43.492Z,1011.09
2018-09-03T11:06:43.422Z,1011.05
2018-09-03T11:07:43.354Z,1011.01
2018-09-03T11:08:43.285Z,1011.04
2018-09-03T11:09:43.217Z,1011.01
2018-09-03T11:10:43.146Z,1011.06
2018-09-03T11:11:43.076Z,1011.05
2018-09-03T11:12:43.007Z,1011.00
2018-09-03T11:13:42.938Z,1010.97
2018-09-03T11:14:42.876Z,1010.94
2018-09-03T11:15:42.800Z,1010.91
2018-09-03T11:16:42.731Z,1010.89
2018-09-03T11:17:42.660Z,1010.85
2018-09-03T11:18:42.596Z,1010.81
2018-09-03T11:19:42.525Z,1010.81
2018-09-03T11:20:42.452Z,1010.83
2018-09-03T11:21:42.390Z,1010.78
2018-09-03T11:22:42.318Z,1010.77
2018-09-03T11:23:42.248Z,1010.79
2018-09-03T11:24:42.183Z,1010.75
2018-09-03T11:25:42.112Z,1010.78
2018-09-03T11:26:42.044Z,1010.76
2018-09-03T11:27:41.972Z,1010.73
2018-09-03T11:28:41.941Z,1010.69
2018-09-03T11:29:41.836Z,1010.65
2018-09-03T11:30:41.767Z,1010.65
2018-09-03T11:31:41.700Z,1010.61
2018-09-03T11:32:41.629Z,1010.66
2018-09-03T11:33:41.557Z,1010.63
2018-09-03T11:34:41.496Z,1010.59
2018-09-03T11:35:41.420Z,1010.58
2018-09-03T11:36:41.348Z,1010.62
2018-09-03T11:37:41.284Z,1010.57
2018-09-03T11:38:41.215Z,1010.58
2018-09-03T11:39:41.146Z,1010.57
2018-09-03T11:40:41.088Z,1010.57
2018-09-03T11:41:41.015Z,1010.61
2018-09-03T11:42:40.934Z,1010.57
2018-09-03T11:43:40.873Z,1010.62
2018-09-03T11:44:40.805Z,1010.64
2018-09-03T11:45:40.735Z,1010.67
2018-09-03T11:46:40.669Z,1010.68
2018-09-03T11:47:40.597Z,1010.71
2018-09-03T11:48:40.529Z,1010.73
2018-09-03T11:49:40.464Z,1010.74
2018-09-03T11:50:40.397Z,1010.75
2018-09-03T11:51:40.328Z,1010.71
2018-09-03T11:52:40.258Z,1010.72
2018-09-03T11:53:40.188Z,1010.72
2018-09-03T11:54:40.120Z,1010.67
2018-09-03T11:55:40.053Z,1010.73
2018-09-03T11:56:39.992Z,1010.72
2018-09-03T11:57:39.917Z,1010.70
2018-09-03T11:58:39.849Z,1010.72
2018-09-03T11:59:39.780Z,1010.72
2018-09-03T12:00:39.760Z,1010.69
2018-09-03T12:01:39.646Z,1010.69
2018-09-03T12:02:39.575Z,1010.65
2018-09-03T12:03:39.513Z,1010.71
2018-09-03T12:04:39.441Z,1010.68